EDT,Max TemperatureF,Mean TemperatureF,Min TemperatureF,Max Dew PointF,MeanDew PointF,Min DewpointF,Max Humidity, Mean Humidity, Min Humidity, Max Sea Level PressureIn, Mean Sea Level PressureIn, Min Sea Level PressureIn, Max VisibilityMiles, Mean VisibilityMiles, Min VisibilityMiles, Max Wind SpeedMPH, Mean Wind SpeedMPH, Max Gust SpeedMPH,PrecipitationIn, CloudCover, Events, WindDirDegrees
2013-7-1,88,84,80,79,77,75,91,83,70,30.05,29.99,29.94,10,10,10,17,9,25,0.00,3,Thunderstorm,167
2013-7-2,88,83,78,80,77,74,100,85,72,30.12,30.06,29.99,10,10,9,16,9,21,0.03,2,Rain,148
2013-7-3,88,83,79,78,76,72,97,81,69,30.14,30.10,30.06,10,10,10,20,13,26,0.00,4,Rain,130
2013-7-4,89,80,73,77,75,73,100,81,67,30.17,30.12,30.08,10,9,2,18,13,31,0.20,2,Rain-Thunderstorm,127
2013-7-5,86,81,78,79,77,75,100,87,72,30.14,30.11,30.07,10,10,7,18,11,30,0.14,5,Rain-Thunderstorm,118
2013-7-6,87,83,79,78,76,74,97,81,67,30.12,30.09,30.05,10,10,10,15,12,23,0.15,4,,105
2013-7-7,87,83,80,78,76,73,90,80,70,30.11,30.08,30.04,10,10,10,17,11,22,0.05,2,Rain,95
2013-7-8,87,81,75,75,74,72,94,77,65,30.16,30.12,30.09,10,10,2,16,9,31,0.17,2,Rain,95
2013-7-9,84,81,78,76,73,71,93,80,67,30.15,30.11,30.07,10,10,10,13,6,,0.01,2,Rain,80
2013-7-10,84,78,73,77,75,72,100,89,79,30.10,30.06,30.02,10,10,10,12,5,,0.32,3,Rain,104
2013-7-11,87,83,79,79,76,74,90,81,69,30.05,30.00,29.96,10,10,10,14,7,,0.00,2,,144
2013-7-12,88,82,77,76,74,69,96,78,59,29.99,29.96,29.92,10,10,10,15,3,,0.00,3,,199
2013-7-13,86,76,71,76,73,71,100,95,69,30.04,29.99,29.94,10,6,0,15,5,23,5.54,6,Fog-Rain-Thunderstorm,233
2013-7-14,86,78,71,76,74,72,100,91,65,30.11,30.06,30.01,10,8,2,14,9,21,1.27,6,Rain,166
2013-7-15,86,78,73,78,74,71,100,83,65,30.10,30.07,30.02,10,10,10,15,5,21,0.07,2,Rain,85
2013-7-16,82,78,73,75,72,68,100,84,67,30.16,30.10,30.06,10,9,6,22,14,36,0.27,4,Rain,94
2013-7-17,79,75,71,74,72,70,100,92,79,30.17,30.11,30.05,10,7,0,22,10,29,2.86,7,Fog-Rain-Thunderstorm,114
2013-7-18,82,76,71,77,73,70,100,96,82,30.14,30.10,30.06,10,8,1,16,6,24,1.40,4,Rain-Thunderstorm,99
2013-7-19,86,80,73,77,75,73,100,87,72,30.14,30.10,30.06,10,10,10,16,7,22,0.00,4,,118
2013-7-20,102,88,73,77,74,68,90,63,43,30.12,30.09,30.06,10,10,10,16,10,21,0.01,4,Rain,143
2013-7-21,88,44,0,78,60,-1,96,82,72,30.17,30.12,30.07,10,10,8,16,4,,0.00,6,,145
2013-7-22,90,86,82,76,74,73,82,69,59,30.16,30.12,30.09,10,10,8,15,9,20,0.00,3,,132
2013-7-23,91,85,80,78,74,72,82,72,55,30.12,30.06,29.99,10,9,2,15,6,16,0.01,3,Rain,177
2013-7-24,93,86,80,76,74,70,85,71,47,30.03,29.98,29.93,10,10,9,13,6,20,0.00,4,,253
2013-7-25,93,86,78,76,73,70,81,70,47,30.04,29.99,29.94,10,10,10,12,6,,0.00,5,,258
2013-7-26,93,88,82,75,73,72,77,59,49,30.04,30.01,29.95,10,9,2,15,9,18,2.12,6,Rain-Thunderstorm,246
2013-7-27,93,86,80,76,74,72,85,74,49,30.04,30.01,29.97,10,10,10,16,6,,3.85,6,,222
2013-7-28,87,83,79,76,74,73,88,75,65,30.09,30.05,30.02,10,9,7,10,5,,0.00,4,Rain-Thunderstorm,156
2013-7-29,91,84,79,77,75,73,88,73,63,30.15,30.10,30.04,10,10,10,18,7,23,0.00,2,,98
2013-7-30,90,84,78,77,75,73,88,75,65,30.17,30.12,30.10,10,9,2,14,8,21,0.13,2,Rain-Thunderstorm,81
2013-7-31,91,86,82,79,76,72,89,72,59,30.12,30.07,30.02,10,10,10,15,9,20,0.02,3,Rain,99